Time;durP1;ratioP1;P1;durP2;ratioP2;P2;SDS_P1;SDS_P2;PMS_P1;PMS_P2;Temp;Humidity;BMP_temperature;BMP_pressure;BME280_temperature;BME280_humidity;BME280_pressure;Samples;Min_cycle;Max_cycle;Signal;HPM_P1;HPM_P2
2023/04/27 00:02:05;;;;;;;6.03;4.10;;;;;;;3.29;76.25;100215.88;10478898;28;20404;-73
2023/04/27 00:07:07;;;;;;;5.35;3.75;;;;;;;3.12;77.21;100213.25;10496721;28;20041;-72
2023/04/27 00:12:08;;;;;;;4.07;3.35;;;;;;;3.11;77.57;100216.72;10478430;28;20324;-72
2023/04/27 00:17:10;;;;;;;7.90;3.80;;;;;;;3.06;78.43;100212.41;10497136;28;20439;-73
2023/04/27 00:22:12;;;;;;;7.60;4.80;;;;;;;2.98;78.67;100218.44;10496209;28;20405;-73
2023/04/27 00:27:14;;;;;;;6.60;4.35;;;;;;;3.03;78.33;100213.25;10495878;28;20131;-73
2023/04/27 00:32:16;;;;;;;6.55;4.28;;;;;;;3.11;77.59;100216.72;10477291;28;20044;-72
2023/04/27 00:37:18;;;;;;;6.28;4.15;;;;;;;3.19;77.24;100219.34;10495766;28;20052;-73
2023/04/27 00:42:20;;;;;;;7.53;3.60;;;;;;;3.03;77.24;100216.72;10476917;28;20061;-72
2023/04/27 00:47:25;;;;;;;6.90;3.55;;;;;;;3.44;75.92;100221.06;10495154;28;20103;-73
2023/04/27 00:52:27;;;;;;;6.40;3.97;;;;;;;3.19;76.56;100224.53;10475019;28;20070;-73
2023/04/27 00:57:29;;;;;;;4.28;3.88;;;;;;;2.68;79.21;100223.56;10494659;28;20051;-73
2023/04/27 01:02:31;;;;;;;6.88;3.78;;;;;;;2.47;80.48;100220.00;10459611;28;20211;-73
2023/04/27 01:07:37;;;;;;;6.65;3.70;;;;;;;2.65;79.81;100223.53;10476194;28;20486;-73
2023/04/27 01:12:39;;;;;;;5.32;3.05;;;;;;;2.50;81.02;100227.81;10475439;28;20074;-73
2023/04/27 01:17:42;;;;;;;6.15;4.45;;;;;;;2.42;81.70;100232.09;10493119;28;20135;-72
2023/04/27 01:22:44;;;;;;;6.28;3.75;;;;;;;2.33;82.24;100232.06;10493333;28;20055;-72
2023/04/27 01:27:46;;;;;;;4.00;2.95;;;;;;;2.34;83.33;100231.19;10475591;28;20501;-72
2023/04/27 01:32:48;;;;;;;6.30;3.80;;;;;;;2.55;82.95;100234.75;10493187;28;20049;-71
2023/04/27 01:37:53;;;;;;;6.57;3.75;;;;;;;2.36;83.42;100233.81;10474636;28;20044;-72
2023/04/27 01:42:55;;;;;;;7.75;4.63;;;;;;;2.17;84.81;100238.00;10493023;28;20052;-73
2023/04/27 01:47:56;;;;;;;4.38;3.88;;;;;;;2.10;85.80;100241.44;10492354;28;20545;-72
2023/04/27 01:52:58;;;;;;;5.70;4.68;;;;;;;2.11;85.26;100250.97;10473925;28;20497;-73
2023/04/27 01:58:02;;;;;;;7.32;4.28;;;;;;;2.18;84.50;100245.81;10474039;28;20067;-72
2023/04/27 02:03:05;;;;;;;4.97;4.53;;;;;;;2.03;85.50;100251.75;10457359;28;20049;-72
2023/04/27 02:08:07;;;;;;;5.30;4.78;;;;;;;1.91;86.66;100256.03;10457690;28;20055;-72
2023/04/27 02:13:08;;;;;;;7.97;4.72;;;;;;;1.86;87.25;100261.19;10490351;28;20060;-72
2023/04/27 02:18:10;;;;;;;6.35;4.95;;;;;;;1.97;86.61;100256.91;10473632;28;20055;-73
2023/04/27 02:23:12;;;;;;;6.80;5.32;;;;;;;1.94;87.04;100266.41;10472972;28;20494;-73
2023/04/27 02:28:16;;;;;;;5.90;5.25;;;;;;;1.92;87.55;100266.41;10457317;28;20146;-72
2023/04/27 02:33:18;;;;;;;6.47;4.90;;;;;;;2.14;86.70;100257.03;10472921;28;20121;-72
2023/04/27 02:38:20;;;;;;;9.32;4.32;;;;;;;1.93;86.42;100265.53;10473041;28;20155;-73
2023/04/27 02:43:21;;;;;;;8.90;4.72;;;;;;;1.92;86.56;100270.72;10473294;28;20044;-73
2023/04/27 02:48:23;;;;;;;9.13;5.07;;;;;;;1.80;87.67;100263.72;10491261;28;20048;-73
2023/04/27 02:53:25;;;;;;;7.80;5.40;;;;;;;1.79;87.83;100259.38;10473088;28;20450;-72
2023/04/27 02:58:27;;;;;;;7.97;6.10;;;;;;;1.75;87.91;100261.09;10472484;28;20110;-73
2023/04/27 03:03:29;;;;;;;8.20;5.95;;;;;;;1.91;87.12;100256.03;10490526;28;20043;-73
2023/04/27 03:08:31;;;;;;;6.65;5.95;;;;;;;1.64;88.48;100262.75;10490329;28;20045;-74
2023/04/27 03:13:40;;;;;;;14.88;6.13;;;;;;;1.74;88.90;100264.53;10475448;28;20116;-73
2023/04/27 03:18:41;;;;;;;12.70;6.63;;;;;;;1.55;88.91;100265.25;10480030;28;20144;-73
2023/04/27 03:23:43;;;;;;;9.10;6.25;;;;;;;1.66;89.91;100273.97;10498010;28;20051;-72
2023/04/27 03:28:45;;;;;;;11.02;6.22;;;;;;;1.61;89.04;100285.16;10498100;28;20040;-72
2023/04/27 03:33:47;;;;;;;11.35;7.65;;;;;;;1.60;89.54;100283.44;10480358;28;20044;-73
2023/04/27 03:38:49;;;;;;;9.43;6.68;;;;;;;1.69;88.75;100299.06;10479823;28;20044;-72
2023/04/27 03:43:52;;;;;;;9.13;6.90;;;;;;;1.46;89.99;100298.81;10479701;28;20044;-73
2023/04/27 03:48:54;;;;;;;9.10;7.80;;;;;;;1.69;88.98;100305.09;10497633;28;20036;-72
2023/04/27 03:53:56;;;;;;;10.20;7.53;;;;;;;1.26;91.24;100309.00;10478932;28;20040;-73
2023/04/27 03:58:58;;;;;;;8.45;7.53;;;;;;;1.13;93.03;100317.50;10479171;28;20083;-73
2023/04/27 04:04:06;;;;;;;10.75;7.22;;;;;;;1.31;93.03;100312.50;10478813;28;20113;-73
2023/04/27 04:09:08;;;;;;;7.95;6.80;;;;;;;1.70;91.30;100318.94;10478604;28;20060;-73
2023/04/27 04:14:10;;;;;;;14.40;7.95;;;;;;;1.56;92.49;100326.56;10478908;28;20048;-73
2023/04/27 04:19:13;;;;;;;17.27;7.45;;;;;;;1.66;91.66;100327.53;10478548;28;20405;-73
2023/04/27 04:24:15;;;;;;;10.98;7.10;;;;;;;1.69;91.18;100324.97;10478096;28;20068;-72
2023/04/27 04:29:18;;;;;;;9.32;7.30;;;;;;;1.66;92.00;100335.31;10478100;28;20088;-72
2023/04/27 04:34:20;;;;;;;10.60;7.13;;;;;;;1.77;91.25;100338.84;10495900;28;20048;-72
2023/04/27 04:39:22;;;;;;;9.73;6.63;;;;;;;1.56;91.91;100336.94;10478311;28;20049;-71
2023/04/27 04:44:24;;;;;;;8.00;7.25;;;;;;;1.56;93.10;100344.72;10496299;28;20127;-72
2023/04/27 04:49:26;;;;;;;11.63;7.40;;;;;;;1.63;92.80;100343.91;10478449;28;20041;-72
2023/04/27 04:54:27;;;;;;;7.28;6.50;;;;;;;1.96;90.52;100343.34;10496201;28;20044;-72
2023/04/27 04:59:32;;;;;;;9.43;6.53;;;;;;;2.14;90.96;100346.94;10480536;28;20438;-74
2023/04/27 05:04:34;;;;;;;12.20;6.15;;;;;;;2.30;89.03;100359.13;10498195;28;20140;-73
2023/04/27 05:09:36;;;;;;;10.82;8.77;;;;;;;2.32;88.33;100360.03;10497431;28;20040;-73
2023/04/27 05:14:38;;;;;;;15.45;7.95;;;;;;;2.47;88.05;100369.63;10497770;28;20119;-73
2023/04/27 05:19:40;;;;;;;11.50;7.47;;;;;;;2.50;88.06;100367.06;10478418;28;20043;-72
2023/04/27 05:24:42;;;;;;;17.90;7.10;;;;;;;2.64;87.96;100361.94;10462798;28;20143;-72
2023/04/27 05:29:43;;;;;;;13.20;7.45;;;;;;;2.86;86.67;100361.19;10496324;28;20040;-72
2023/04/27 05:34:45;;;;;;;11.40;7.63;;;;;;;2.99;86.23;100364.72;10496664;28;20075;-74
2023/04/27 05:39:50;;;;;;;8.93;7.68;;;;;;;3.14;85.95;100369.09;10498509;28;20425;-74
2023/04/27 05:44:52;;;;;;;18.13;7.93;;;;;;;3.21;85.89;100361.34;10496934;28;20040;-72
2023/04/27 05:49:54;;;;;;;22.08;8.95;;;;;;;3.31;83.64;100362.22;10496095;28;20136;-73
2023/04/27 05:55:00;;;;;;;8.07;6.38;;;;;;;3.59;82.56;100359.72;10495751;28;20065;-72
2023/04/27 06:00:07;;;;;;;7.75;6.68;;;;;;;4.44;77.11;100361.47;10460196;28;20450;-72
2023/04/27 06:05:12;;;;;;;11.48;6.60;;;;;;;5.13;72.35;100350.81;10495156;28;20051;-74
2023/04/27 06:10:15;;;;;;;7.53;6.05;;;;;;;5.55;68.91;100341.91;10475803;28;20114;-72
2023/04/27 06:15:17;;;;;;;7.97;5.63;;;;;;;5.53;69.78;100343.63;10477083;28;20443;-72
2023/04/27 06:20:19;;;;;;;7.05;5.88;;;;;;;5.60;69.06;100349.69;10495252;28;20092;-72
2023/04/27 06:25:21;;;;;;;12.35;6.57;;;;;;;5.53;69.29;100348.84;10495080;28;20451;-73
2023/04/27 06:30:26;;;;;;;13.05;5.95;;;;;;;5.97;67.87;100350.31;10494349;28;20037;-72
2023/04/27 06:35:28;;;;;;;8.45;5.78;;;;;;;6.03;67.47;100353.75;10474841;28;20443;-72
2023/04/27 06:40:30;;;;;;;9.85;6.22;;;;;;;6.62;67.82;100363.66;10493308;28;20036;-72
2023/04/27 06:45:32;;;;;;;7.68;4.80;;;;;;;6.72;65.68;100362.66;10492975;28;20105;-72
2023/04/27 06:50:34;;;;;;;9.23;5.75;;;;;;;7.17;65.12;100357.78;10481800;28;20045;-72
2023/04/27 06:55:36;;;;;;;8.85;5.25;;;;;;;7.34;62.51;100366.28;10501647;28;20099;-73
2023/04/27 07:00:38;;;;;;;16.73;5.15;;;;;;;7.41;63.22;100362.72;10483102;28;20040;-72
2023/04/27 07:05:40;;;;;;;6.00;5.35;;;;;;;7.58;63.14;100363.34;10501769;28;20405;-73
2023/04/27 07:10:42;;;;;;;12.40;5.90;;;;;;;7.99;60.81;100368.84;10485282;28;20036;-73
2023/04/27 07:15:44;;;;;;;7.40;5.15;;;;;;;8.11;58.73;100368.66;10467485;28;20232;-72
2023/04/27 07:20:45;;;;;;;8.05;5.15;;;;;;;8.12;58.35;100374.75;10501659;28;20120;-71
2023/04/27 07:25:47;;;;;;;10.80;5.70;;;;;;;7.94;59.17;100370.66;10481519;28;20044;-72
2023/04/27 07:30:50;;;;;;;8.60;5.38;;;;;;;7.95;58.67;100375.88;10467930;28;20079;-73
2023/04/27 07:35:52;;;;;;;7.70;5.90;;;;;;;8.26;58.24;100380.59;10451006;28;20049;-73
2023/04/27 07:40:54;;;;;;;7.60;5.93;;;;;;;8.10;59.46;100385.22;10443326;28;20147;-71
2023/04/27 07:45:57;;;;;;;7.90;6.57;;;;;;;8.18;60.71;100382.47;10500920;28;20512;-72
2023/04/27 07:50:59;;;;;;;7.65;5.82;;;;;;;8.86;55.86;100383.06;10499806;28;20126;-72
2023/04/27 07:56:02;;;;;;;11.45;5.88;;;;;;;9.17;57.53;100379.84;10480404;28;20041;-72
2023/04/27 08:01:03;;;;;;;7.72;6.05;;;;;;;9.51;55.11;100385.22;10452749;28;20128;-71
2023/04/27 08:06:05;;;;;;;12.70;5.68;;;;;;;9.01;57.32;100392.38;10459183;28;20071;-72
2023/04/27 08:11:09;;;;;;;10.23;6.55;;;;;;;9.38;56.43;100397.72;10440565;28;20036;-72
2023/04/27 08:16:11;;;;;;;9.00;4.60;;;;;;;9.95;54.81;100386.84;10457336;28;20049;-72
2023/04/27 08:21:13;;;;;;;8.48;5.65;;;;;;;10.30;54.54;100377.28;10458521;28;20095;-72
2023/04/27 08:26:15;;;;;;;14.35;5.93;;;;;;;10.29;53.26;100384.28;10458165;28;20207;-72
2023/04/27 08:31:17;;;;;;;8.40;5.35;;;;;;;10.46;52.21;100394.38;10479409;28;20036;-72
2023/04/27 08:36:26;;;;;;;5.88;5.32;;;;;;;10.23;51.50;100380.94;10499977;28;20051;-72
2023/04/27 08:41:28;;;;;;;5.80;4.70;;;;;;;10.41;51.13;100388.38;10498722;28;20041;-73
2023/04/27 08:46:30;;;;;;;6.93;5.53;;;;;;;10.33;50.93;100383.31;10479555;28;20052;-73
2023/04/27 08:51:33;;;;;;;5.47;3.92;;;;;;;10.61;43.42;100385.22;10497832;28;20071;-72
2023/04/27 08:56:34;;;;;;;4.85;3.63;;;;;;;10.15;42.48;100373.22;10497967;28;20060;-73
2023/04/27 09:01:42;;;;;;;10.43;4.75;;;;;;;10.39;44.58;100384.06;10497929;28;20051;-73
2023/04/27 09:06:45;;;;;;;5.63;4.05;;;;;;;10.66;44.82;100380.72;10481115;28;20048;-73
2023/04/27 09:11:48;;;;;;;6.47;4.82;;;;;;;10.89;44.82;100384.47;10497452;28;20438;-72
2023/04/27 09:16:58;;;;;;;7.13;4.40;;;;;;;10.96;45.04;100383.41;10496173;28;20045;-73
2023/04/27 09:22:08;;;;;;;4.80;3.63;;;;;;;11.51;42.15;100371.28;10495524;28;20041;-73
2023/04/27 09:27:18;;;;;;;4.28;3.88;;;;;;;11.31;41.92;100374.53;10477603;28;20048;-74
2023/04/27 09:32:20;;;;;;;4.68;3.90;;;;;;;11.26;40.79;100369.41;10477432;28;20068;-74
2023/04/27 09:37:22;;;;;;;5.18;3.95;;;;;;;11.52;40.79;100360.72;10496214;28;20044;-72
2023/04/27 09:42:24;;;;;;;8.48;4.78;;;;;;;11.53;40.23;100366.84;10495338;28;20520;-73
2023/04/27 09:47:27;;;;;;;5.20;4.47;;;;;;;11.43;40.84;100360.16;10477254;28;20040;-73
2023/04/27 09:52:29;;;;;;;5.28;4.10;;;;;;;12.05;40.55;100355.56;10495171;28;20048;-73
2023/04/27 09:57:36;;;;;;;4.43;4.00;;;;;;;12.14;40.17;100361.47;10494453;28;20498;-73
2023/04/27 10:03:03;;;;;;;5.72;4.55;;;;;;;11.65;39.81;100352.47;10495257;28;20102;-73
2023/04/27 10:08:05;;;;;;;5.45;4.80;;;;;;;10.96;40.12;100350.09;10494588;28;20490;-72
2023/04/27 10:13:21;;;;;;;7.97;5.35;;;;;;;11.00;40.94;100354.34;10495486;28;20462;-74
2023/04/27 10:18:28;;;;;;;8.13;4.32;;;;;;;10.82;41.43;100362.75;10494479;28;20059;-72
2023/04/27 10:23:29;;;;;;;7.53;5.28;;;;;;;10.10;41.77;100360.22;10493249;28;20041;-74
2023/04/27 10:28:38;;;;;;;6.88;5.10;;;;;;;10.73;40.69;100363.88;10475509;28;20106;-73
2023/04/27 10:33:42;;;;;;;6.07;4.75;;;;;;;10.69;42.33;100362.22;10493680;28;20036;-74
2023/04/27 10:38:44;;;;;;;5.15;4.65;;;;;;;11.17;41.25;100353.03;10475451;28;20151;-73
2023/04/27 10:43:46;;;;;;;7.28;4.53;;;;;;;12.11;40.09;100360.63;10493383;28;20051;-72
2023/04/27 10:48:48;;;;;;;4.75;4.35;;;;;;;12.31;39.29;100359.13;10492926;28;20443;-73
2023/04/27 10:53:53;;;;;;;7.45;4.28;;;;;;;11.92;39.12;100356.03;10492537;28;20111;-72
2023/04/27 10:59:00;;;;;;;4.60;3.55;;;;;;;12.07;37.00;100356.38;10474816;28;20049;-73
2023/04/27 11:04:02;;;;;;;5.25;3.85;;;;;;;11.83;39.77;100354.53;10475032;28;20040;-73
2023/04/27 11:09:05;;;;;;;4.65;3.97;;;;;;;12.04;38.67;100358.22;10493119;28;20115;-72
2023/04/27 11:14:07;;;;;;;4.38;3.88;;;;;;;11.59;39.17;100351.72;10493804;28;20048;-72
2023/04/27 11:19:08;;;;;;;5.55;4.15;;;;;;;11.75;38.38;100343.34;10493490;28;20045;-72
2023/04/27 11:24:10;;;;;;;5.10;3.78;;;;;;;11.69;39.21;100352.31;10492008;28;20408;-72
2023/04/27 11:29:15;;;;;;;4.30;3.33;;;;;;;12.24;39.47;100360.22;10492268;28;20416;-72
2023/04/27 11:34:22;;;;;;;5.93;4.55;;;;;;;12.27;38.67;100352.22;10459522;28;20060;-72
2023/04/27 11:39:32;;;;;;;10.27;4.85;;;;;;;12.20;38.21;100355.97;10482963;28;20047;-72
2023/04/27 11:44:34;;;;;;;6.72;4.43;;;;;;;11.92;37.49;100348.97;10500694;28;20078;-72
2023/04/27 11:49:37;;;;;;;4.55;3.17;;;;;;;11.61;38.78;100357.81;10508700;23;20118;-71
2023/04/27 11:54:45;;;;;;;3.95;3.40;;;;;;;11.62;39.71;100358.66;10495005;28;20509;-72
2023/04/27 11:59:47;;;;;;;4.95;3.25;;;;;;;12.07;38.26;100366.03;10476905;28;20404;-71
2023/04/27 12:04:49;;;;;;;4.80;3.90;;;;;;;12.16;37.75;100372.78;10499513;28;20422;-71
2023/04/27 12:09:51;;;;;;;5.70;3.75;;;;;;;12.25;37.69;100364.59;10512029;28;20115;-72
2023/04/27 12:14:53;;;;;;;4.68;3.55;;;;;;;12.26;36.82;100364.53;10449913;28;20041;-72
2023/04/27 12:19:55;;;;;;;6.25;3.88;;;;;;;12.12;37.91;100372.88;10452760;28;20509;-72
2023/04/27 12:24:57;;;;;;;4.22;3.63;;;;;;;12.18;38.05;100377.13;10452967;28;20033;-71
2023/04/27 12:29:59;;;;;;;5.93;4.97;;;;;;;12.07;38.17;100371.31;10432273;28;20144;-72
2023/04/27 12:35:01;;;;;;;5.18;4.32;;;;;;;12.47;38.04;100365.56;10510973;28;20044;-71
2023/04/27 12:40:06;;;;;;;5.55;5.03;;;;;;;12.88;39.82;100377.34;10516002;28;20040;-72
2023/04/27 12:45:08;;;;;;;5.15;4.75;;;;;;;13.56;37.26;100375.72;10515722;28;20044;-72
2023/04/27 12:50:10;;;;;;;7.45;5.82;;;;;;;13.15;36.72;100369.34;10498592;28;20040;-71
2023/04/27 12:55:11;;;;;;;7.00;4.70;;;;;;;13.18;37.96;100365.69;10493220;28;20064;-73
2023/04/27 13:00:33;;;;;;;4.25;3.80;;;;;;;13.88;37.88;100368.28;10493359;28;20416;-72
2023/04/27 13:05:35;;;;;;;7.00;5.03;;;;;;;13.33;36.42;100362.53;10516294;28;20104;-72
2023/04/27 13:10:37;;;;;;;6.43;5.18;;;;;;;13.11;37.71;100359.81;10534847;28;20131;-72
2023/04/27 13:15:38;;;;;;;5.63;5.13;;;;;;;13.12;38.31;100353.59;10516406;28;20457;-71
2023/04/27 13:20:41;;;;;;;4.28;3.97;;;;;;;13.69;36.98;100354.97;10534637;28;20389;-72
2023/04/27 13:25:43;;;;;;;5.60;4.28;;;;;;;13.71;35.15;100357.53;10534727;28;20335;-71
2023/04/27 13:30:45;;;;;;;9.95;4.65;;;;;;;13.59;35.69;100359.75;10533984;28;20044;-72
2023/04/27 13:35:47;;;;;;;5.20;4.70;;;;;;;12.96;37.18;100357.72;10533808;28;20115;-72
2023/04/27 13:40:48;;;;;;;6.13;4.78;;;;;;;12.71;38.63;100349.84;10483373;28;20060;-72
2023/04/27 13:45:52;;;;;;;6.03;5.53;;;;;;;12.68;39.16;100352.56;10491844;28;20040;-69
2023/04/27 13:50:57;;;;;;;6.20;5.60;;;;;;;12.28;40.41;100353.94;10473196;28;20045;-71
2023/04/27 13:55:58;;;;;;;7.45;5.97;;;;;;;12.36;39.30;100336.09;10490998;28;20109;-71
2023/04/27 14:01:00;;;;;;;8.60;5.45;;;;;;;12.42;39.41;100332.38;10492044;28;20044;-72
2023/04/27 14:06:02;;;;;;;6.95;6.07;;;;;;;12.29;39.25;100339.84;10473408;28;20048;-71
2023/04/27 14:11:05;;;;;;;6.30;5.80;;;;;;;12.26;39.89;100339.94;10490822;28;20419;-72
2023/04/27 14:16:07;;;;;;;9.68;6.82;;;;;;;12.23;39.08;100334.78;10490810;28;20152;-72
2023/04/27 14:21:09;;;;;;;6.55;5.95;;;;;;;12.23;39.41;100333.00;10472593;28;20478;-70
2023/04/27 14:26:11;;;;;;;6.82;6.13;;;;;;;12.34;39.10;100322.09;10490511;28;20112;-70
2023/04/27 14:31:13;;;;;;;6.18;5.50;;;;;;;12.33;39.68;100317.75;10489746;28;20037;-71
2023/04/27 14:36:16;;;;;;;8.32;6.45;;;;;;;12.20;39.47;100321.72;10490705;28;20037;-70
2023/04/27 14:41:18;;;;;;;6.00;5.38;;;;;;;12.12;40.65;100320.19;10490029;28;20036;-70
2023/04/27 14:46:20;;;;;;;6.25;5.40;;;;;;;12.59;38.56;100325.59;10471142;28;20057;-71
2023/04/27 14:51:22;;;;;;;6.10;5.50;;;;;;;12.29;39.93;100316.97;10489986;28;20142;-71
2023/04/27 14:56:24;;;;;;;8.98;6.15;;;;;;;12.03;40.02;100324.91;10489484;28;20110;-69
2023/04/27 15:01:26;;;;;;;8.75;6.68;;;;;;;12.09;38.66;100322.09;10489544;28;20508;-70
2023/04/27 15:06:29;;;;;;;5.57;5.07;;;;;;;12.09;39.90;100328.22;10489577;28;20075;-70
2023/04/27 15:11:31;;;;;;;6.13;5.63;;;;;;;11.92;39.26;100327.91;10495505;28;20373;-70
2023/04/27 15:16:33;;;;;;;8.70;5.78;;;;;;;11.98;38.83;100327.69;10497539;28;20045;-70
2023/04/27 15:21:34;;;;;;;5.97;5.47;;;;;;;11.94;39.79;100320.78;10498356;28;20425;-70
2023/04/27 15:26:36;;;;;;;7.22;5.95;;;;;;;11.92;39.40;100317.38;10497077;28;20048;-71
2023/04/27 15:31:38;;;;;;;5.40;4.70;;;;;;;11.90;39.56;100327.06;10496434;28;20191;-70
2023/04/27 15:36:40;;;;;;;7.35;5.32;;;;;;;11.91;39.61;100320.91;10496230;28;20416;-70
2023/04/27 15:41:41;;;;;;;6.25;5.70;;;;;;;11.81;39.94;100325.56;10478217;28;20065;-69
2023/04/27 15:46:43;;;;;;;6.45;5.80;;;;;;;11.77;39.88;100321.31;10496232;28;20490;-69
2023/04/27 15:51:45;;;;;;;7.95;5.10;;;;;;;11.71;40.96;100313.59;10495480;28;20060;-68
2023/04/27 15:56:47;;;;;;;8.55;5.45;;;;;;;11.92;40.02;100308.59;10478767;28;20048;-68
2023/04/27 16:01:49;;;;;;;5.93;5.43;;;;;;;11.70;39.81;100298.72;10495218;28;20454;-70
2023/04/27 16:06:51;;;;;;;6.22;4.93;;;;;;;11.84;39.92;100298.31;10494504;28;20480;-70
2023/04/27 16:11:53;;;;;;;6.55;5.90;;;;;;;11.65;40.14;100286.63;10494661;28;20128;-70
2023/04/27 16:16:58;;;;;;;5.63;5.03;;;;;;;11.35;40.88;100282.28;10494476;28;20109;-70
2023/04/27 16:22:02;;;;;;;5.57;5.03;;;;;;;11.57;40.33;100271.06;10493838;28;20036;-68
2023/04/27 16:27:04;;;;;;;5.85;5.25;;;;;;;11.56;40.96;100272.84;10493614;28;20062;-70
2023/04/27 16:32:06;;;;;;;8.23;5.47;;;;;;;11.27;41.63;100275.50;10516268;28;20057;-69
2023/04/27 16:37:08;;;;;;;5.65;5.20;;;;;;;11.26;41.34;100272.03;10504997;28;20044;-69
2023/04/27 16:42:12;;;;;;;6.65;6.05;;;;;;;10.95;41.34;100273.88;10535432;28;20113;-69
2023/04/27 16:47:14;;;;;;;6.55;5.95;;;;;;;10.82;41.86;100274.22;10492272;28;20048;-70
2023/04/27 16:52:16;;;;;;;6.13;5.53;;;;;;;10.81;41.58;100269.88;10493935;28;20037;-69
2023/04/27 16:57:19;;;;;;;6.03;5.53;;;;;;;10.78;41.97;100279.59;10495041;28;20094;-70
2023/04/27 17:02:21;;;;;;;6.22;5.07;;;;;;;10.95;42.01;100277.34;10475839;28;20040;-70
2023/04/27 17:07:31;;;;;;;6.55;5.28;;;;;;;10.73;42.96;100281.50;10496861;28;20087;-72
2023/04/27 17:12:37;;;;;;;6.70;5.18;;;;;;;10.59;42.93;100282.75;10499676;28;20042;-71
2023/04/27 17:17:40;;;;;;;9.45;4.80;;;;;;;10.38;42.54;100285.97;10509395;28;20490;-69
2023/04/27 17:22:42;;;;;;;7.95;5.90;;;;;;;10.38;42.83;100282.47;10492032;28;20040;-69
2023/04/27 17:27:44;;;;;;;5.30;4.80;;;;;;;10.33;42.83;100285.22;10436948;28;20481;-69
2023/04/27 17:32:46;;;;;;;5.93;4.68;;;;;;;10.44;42.84;100282.31;10450455;28;20063;-70
2023/04/27 17:37:47;;;;;;;4.32;3.92;;;;;;;10.48;42.55;100281.31;10451053;28;20122;-69
2023/04/27 17:42:49;;;;;;;5.95;5.32;;;;;;;10.16;43.07;100290.03;10493607;28;20119;-70
2023/04/27 17:47:51;;;;;;;5.20;4.80;;;;;;;9.90;44.09;100293.31;10533398;28;20127;-69
2023/04/27 17:52:53;;;;;;;6.57;4.97;;;;;;;9.75;45.06;100294.56;10464505;22;20076;-73
2023/04/27 17:57:55;;;;;;;6.57;5.03;;;;;;;9.78;45.10;100294.47;10452948;28;20513;-71
2023/04/27 18:02:57;;;;;;;6.47;4.43;;;;;;;9.68;45.63;100296.47;10452564;28;20443;-74
2023/04/27 18:07:59;;;;;;;5.93;4.82;;;;;;;9.73;45.27;100299.84;10418365;28;20044;-72
2023/04/27 18:13:01;;;;;;;5.93;5.07;;;;;;;9.74;45.74;100308.56;10434618;28;20063;-74
2023/04/27 18:18:03;;;;;;;5.05;4.50;;;;;;;9.50;46.15;100316.13;10452609;28;20407;-74
2023/04/27 18:23:05;;;;;;;6.22;5.45;;;;;;;9.67;47.81;100317.50;10434063;28;20418;-72
2023/04/27 18:28:06;;;;;;;6.68;4.68;;;;;;;9.54;48.22;100322.19;10451091;28;20055;-73
2023/04/27 18:33:08;;;;;;;6.00;4.78;;;;;;;9.25;50.57;100317.56;10434530;28;20133;-72
2023/04/27 18:38:10;;;;;;;9.38;6.53;;;;;;;9.32;52.57;100321.78;10452032;28;20136;-74
2023/04/27 18:43:12;;;;;;;6.60;5.90;;;;;;;8.92;53.39;100327.03;10452075;28;20052;-74
2023/04/27 18:48:14;;;;;;;10.18;7.95;;;;;;;8.58;55.33;100340.78;10433781;28;20574;-73
2023/04/27 18:53:16;;;;;;;7.15;6.22;;;;;;;8.28;55.84;100350.91;10448716;28;20041;-73
2023/04/27 18:58:18;;;;;;;6.93;5.22;;;;;;;8.11;57.29;100349.47;10432694;28;20114;-74
2023/04/27 19:03:19;;;;;;;8.35;5.65;;;;;;;8.00;57.83;100352.22;10450587;28;20059;-72
2023/04/27 19:08:21;;;;;;;6.32;5.28;;;;;;;7.89;58.06;100348.94;10439831;28;20047;-72
2023/04/27 19:13:23;;;;;;;6.55;5.30;;;;;;;7.93;58.13;100354.09;10465349;28;20348;-73
2023/04/27 19:18:26;;;;;;;7.18;6.57;;;;;;;8.11;57.40;100358.16;10439325;28;20139;-73
2023/04/27 19:23:28;;;;;;;11.93;6.32;;;;;;;8.05;57.59;100355.63;10436710;28;20045;-72
2023/04/27 19:28:32;;;;;;;7.25;6.53;;;;;;;7.77;59.01;100358.69;10488238;28;20084;-73
2023/04/27 19:33:34;;;;;;;7.63;6.93;;;;;;;7.74;59.36;100357.88;10433131;28;20040;-73
2023/04/27 19:38:36;;;;;;;8.18;7.38;;;;;;;7.36;61.01;100356.69;10451045;28;20040;-73
2023/04/27 19:43:37;;;;;;;8.25;7.45;;;;;;;7.03;62.55;100358.81;10462397;28;20059;-73
2023/04/27 19:48:39;;;;;;;8.30;7.55;;;;;;;7.52;62.21;100354.69;10462197;28;20080;-73
2023/04/27 19:53:43;;;;;;;9.80;8.65;;;;;;;7.24;63.45;100349.00;10450103;28;20139;-73
2023/04/27 19:58:45;;;;;;;9.50;8.68;;;;;;;6.80;65.53;100350.41;10464973;28;20405;-74
2023/04/27 20:03:47;;;;;;;16.13;10.00;;;;;;;7.02;66.92;100336.19;10452581;28;20424;-73
2023/04/27 20:08:49;;;;;;;12.52;11.23;;;;;;;7.20;64.24;100334.22;10398063;28;20061;-72
2023/04/27 20:13:51;;;;;;;15.73;13.43;;;;;;;7.04;65.01;100329.22;10416115;28;20041;-73
2023/04/27 20:18:54;;;;;;;13.40;12.20;;;;;;;6.96;64.91;100331.03;10413308;28;20379;-73
2023/04/27 20:23:56;;;;;;;14.57;12.90;;;;;;;7.16;64.18;100329.91;10397918;28;20041;-72
2023/04/27 20:28:59;;;;;;;17.60;14.32;;;;;;;7.00;64.40;100329.28;10413362;28;20051;-73
2023/04/27 20:34:01;;;;;;;16.92;13.80;;;;;;;7.00;64.01;100332.75;10412388;28;20057;-72
2023/04/27 20:39:04;;;;;;;18.30;13.48;;;;;;;6.78;64.83;100332.13;10396008;28;20049;-72
2023/04/27 20:44:07;;;;;;;16.33;13.48;;;;;;;6.40;66.90;100329.91;10412555;28;20038;-72
2023/04/27 20:49:09;;;;;;;14.98;13.57;;;;;;;6.63;66.04;100328.81;10413101;28;20053;-73
2023/04/27 20:54:11;;;;;;;15.80;13.95;;;;;;;6.45;66.60;100335.09;10411896;28;20378;-72
2023/04/27 20:59:13;;;;;;;16.58;14.02;;;;;;;6.25;67.91;100338.78;10411572;28;20069;-72
2023/04/27 21:04:15;;;;;;;23.63;14.13;;;;;;;6.14;68.92;100332.78;10411793;28;20121;-72
2023/04/27 21:09:17;;;;;;;16.30;14.20;;;;;;;5.99;69.88;100333.78;10412175;28;20054;-73
2023/04/27 21:14:19;;;;;;;16.05;13.40;;;;;;;6.07;69.88;100318.94;10412598;28;20443;-71
2023/04/27 21:19:20;;;;;;;14.93;13.25;;;;;;;6.27;69.10;100316.13;10412225;28;20367;-72
2023/04/27 21:24:22;;;;;;;14.85;13.55;;;;;;;5.89;70.45;100308.63;10411813;28;20048;-71
2023/04/27 21:29:25;;;;;;;13.98;12.48;;;;;;;5.91;70.67;100309.47;10411547;28;20511;-72
2023/04/27 21:34:26;;;;;;;15.77;12.00;;;;;;;5.97;70.80;100312.03;10410734;28;20052;-71
2023/04/27 21:39:28;;;;;;;13.80;12.50;;;;;;;5.57;72.75;100308.84;10410463;28;20514;-73
2023/04/27 21:44:30;;;;;;;13.20;12.00;;;;;;;5.61;73.28;100300.13;10409728;28;20090;-72
2023/04/27 21:49:31;;;;;;;13.30;12.10;;;;;;;5.57;74.01;100295.81;10409821;28;20517;-73
2023/04/27 21:54:33;;;;;;;13.15;11.52;;;;;;;5.33;74.92;100299.47;10411398;28;20052;-73
2023/04/27 21:59:35;;;;;;;12.05;10.95;;;;;;;5.39;75.26;100296.81;10409077;28;20072;-73
2023/04/27 22:04:37;;;;;;;12.88;11.57;;;;;;;5.25;75.81;100293.41;10411196;28;20045;-73
2023/04/27 22:09:40;;;;;;;12.43;11.40;;;;;;;5.56;74.67;100294.94;10410692;28;20041;-73
2023/04/27 22:14:42;;;;;;;15.13;12.18;;;;;;;5.63;74.58;100298.38;10410496;28;20120;-73
2023/04/27 22:19:43;;;;;;;13.38;12.15;;;;;;;5.32;76.31;100300.34;10410448;28;20471;-73
2023/04/27 22:24:45;;;;;;;13.40;11.00;;;;;;;5.52;75.83;100302.81;10409983;28;20113;-73
2023/04/27 22:29:47;;;;;;;15.77;11.38;;;;;;;5.40;75.28;100295.94;10410894;28;20056;-74
2023/04/27 22:34:49;;;;;;;12.38;11.20;;;;;;;5.03;76.10;100295.28;10408488;28;20045;-73
2023/04/27 22:39:51;;;;;;;12.98;11.77;;;;;;;4.78;77.59;100304.94;10410083;28;20047;-73
2023/04/27 22:44:53;;;;;;;13.60;11.57;;;;;;;4.67;78.12;100309.31;10408106;28;20045;-72
2023/04/27 22:49:54;;;;;;;12.85;11.80;;;;;;;4.70;78.84;100309.31;10407656;28;20136;-72
2023/04/27 22:54:56;;;;;;;14.23;11.93;;;;;;;4.73;78.55;100304.94;10408953;28;20077;-72
2023/04/27 22:59:58;;;;;;;13.02;11.75;;;;;;;4.90;77.50;100304.88;10409248;28;20057;-72
2023/04/27 23:04:59;;;;;;;12.55;11.55;;;;;;;4.52;79.96;100303.31;10409488;28;20103;-72
2023/04/27 23:10:01;;;;;;;13.77;12.57;;;;;;;4.73;80.47;100298.88;10409153;28;20045;-72
2023/04/27 23:15:04;;;;;;;13.85;12.75;;;;;;;4.91;79.40;100300.53;10408925;28;20049;-73